sensor_id;sensor_type;location;lat;lon;timestamp;P1;durP1;ratioP1;P2;durP2;ratioP2
26040;SDS011;13816;53.628;9.950;2022-10-18T00:00:22;23.83;;;13.43;;
26040;SDS011;13816;53.628;9.950;2022-10-18T00:02:48;19.50;;;15.00;;
26040;SDS011;13816;53.628;9.950;2022-10-18T00:05:14;18.93;;;14.03;;
26040;SDS011;13816;53.628;9.950;2022-10-18T00:07:40;22.87;;;14.43;;
26040;SDS011;13816;53.628;9.950;2022-10-18T00:10:06;18.57;;;13.80;;
26040;SDS011;13816;53.628;9.950;2022-10-18T00:12:33;26.93;;;13.57;;
26040;SDS011;13816;53.628;9.950;2022-10-18T00:14:59;22.30;;;14.33;;
26040;SDS011;13816;53.628;9.950;2022-10-18T00:17:25;28.67;;;15.73;;
26040;SDS011;13816;53.628;9.950;2022-10-18T00:19:51;20.37;;;14.20;;
26040;SDS011;13816;53.628;9.950;2022-10-18T00:22:17;19.63;;;14.50;;
26040;SDS011;13816;53.628;9.950;2022-10-18T00:24:43;19.97;;;13.53;;
26040;SDS011;13816;53.628;9.950;2022-10-18T00:27:10;28.50;;;15.47;;
26040;SDS011;13816;53.628;9.950;2022-10-18T00:29:36;26.17;;;16.23;;
26040;SDS011;13816;53.628;9.950;2022-10-18T00:32:02;25.97;;;16.27;;
26040;SDS011;13816;53.628;9.950;2022-10-18T00:34:28;24.70;;;15.73;;
26040;SDS011;13816;53.628;9.950;2022-10-18T00:36:54;26.83;;;15.80;;
26040;SDS011;13816;53.628;9.950;2022-10-18T00:39:20;30.87;;;16.80;;
26040;SDS011;13816;53.628;9.950;2022-10-18T00:41:47;25.57;;;16.00;;
26040;SDS011;13816;53.628;9.950;2022-10-18T00:46:43;23.03;;;16.57;;
26040;SDS011;13816;53.628;9.950;2022-10-18T00:49:15;21.80;;;16.20;;
26040;SDS011;13816;53.628;9.950;2022-10-18T00:51:44;29.73;;;15.83;;
26040;SDS011;13816;53.628;9.950;2022-10-18T00:54:11;27.47;;;16.63;;
26040;SDS011;13816;53.628;9.950;2022-10-18T00:56:38;34.97;;;19.50;;
26040;SDS011;13816;53.628;9.950;2022-10-18T00:59:04;25.40;;;16.10;;
26040;SDS011;13816;53.628;9.950;2022-10-18T01:01:31;28.10;;;17.63;;
26040;SDS011;13816;53.628;9.950;2022-10-18T01:03:58;30.60;;;17.27;;
26040;SDS011;13816;53.628;9.950;2022-10-18T01:06:24;24.20;;;17.33;;
26040;SDS011;13816;53.628;9.950;2022-10-18T01:11:28;36.40;;;17.27;;
26040;SDS011;13816;53.628;9.950;2022-10-18T01:16:46;25.10;;;16.60;;
26040;SDS011;13816;53.628;9.950;2022-10-18T01:21:50;26.93;;;17.70;;
26040;SDS011;13816;53.628;9.950;2022-10-18T01:24:29;28.90;;;18.70;;
26040;SDS011;13816;53.628;9.950;2022-10-18T01:27:09;33.90;;;19.87;;
26040;SDS011;13816;53.628;9.950;2022-10-18T01:29:49;32.17;;;18.73;;
26040;SDS011;13816;53.628;9.950;2022-10-18T01:32:19;30.97;;;19.13;;
26040;SDS011;13816;53.628;9.950;2022-10-18T01:34:46;32.90;;;18.67;;
26040;SDS011;13816;53.628;9.950;2022-10-18T01:37:15;36.97;;;17.77;;
26040;SDS011;13816;53.628;9.950;2022-10-18T01:39:43;37.03;;;19.50;;
26040;SDS011;13816;53.628;9.950;2022-10-18T01:42:10;24.40;;;17.10;;
26040;SDS011;13816;53.628;9.950;2022-10-18T01:44:37;26.60;;;18.90;;
26040;SDS011;13816;53.628;9.950;2022-10-18T01:47:03;25.10;;;17.17;;
26040;SDS011;13816;53.628;9.950;2022-10-18T01:49:31;45.97;;;20.77;;
26040;SDS011;13816;53.628;9.950;2022-10-18T01:51:57;26.73;;;18.00;;
26040;SDS011;13816;53.628;9.950;2022-10-18T01:54:26;32.50;;;19.20;;
26040;SDS011;13816;53.628;9.950;2022-10-18T02:04:55;23.47;;;17.80;;
26040;SDS011;13816;53.628;9.950;2022-10-18T02:10:03;30.20;;;18.90;;
26040;SDS011;13816;53.628;9.950;2022-10-18T02:12:33;26.50;;;18.60;;
26040;SDS011;13816;53.628;9.950;2022-10-18T02:15:01;35.93;;;20.50;;
26040;SDS011;13816;53.628;9.950;2022-10-18T02:17:27;33.13;;;19.50;;
26040;SDS011;13816;53.628;9.950;2022-10-18T02:19:54;26.57;;;19.03;;
26040;SDS011;13816;53.628;9.950;2022-10-18T02:22:22;34.10;;;20.67;;
26040;SDS011;13816;53.628;9.950;2022-10-18T02:24:50;35.37;;;20.67;;
26040;SDS011;13816;53.628;9.950;2022-10-18T02:27:18;28.87;;;20.00;;
26040;SDS011;13816;53.628;9.950;2022-10-18T02:29:44;29.17;;;20.50;;
26040;SDS011;13816;53.628;9.950;2022-10-18T02:32:13;27.40;;;19.20;;
26040;SDS011;13816;53.628;9.950;2022-10-18T02:34:43;25.93;;;18.87;;
26040;SDS011;13816;53.628;9.950;2022-10-18T02:37:10;31.03;;;19.50;;
26040;SDS011;13816;53.628;9.950;2022-10-18T02:39:38;44.67;;;20.40;;
26040;SDS011;13816;53.628;9.950;2022-10-18T02:42:05;33.90;;;19.20;;
26040;SDS011;13816;53.628;9.950;2022-10-18T02:44:35;30.10;;;19.60;;
26040;SDS011;13816;53.628;9.950;2022-10-18T02:47:02;29.73;;;20.07;;
26040;SDS011;13816;53.628;9.950;2022-10-18T02:49:28;37.73;;;21.63;;
26040;SDS011;13816;53.628;9.950;2022-10-18T02:51:54;34.70;;;18.63;;
26040;SDS011;13816;53.628;9.950;2022-10-18T02:54:20;38.07;;;20.53;;
26040;SDS011;13816;53.628;9.950;2022-10-18T02:56:46;29.80;;;19.90;;
26040;SDS011;13816;53.628;9.950;2022-10-18T02:59:13;31.60;;;20.23;;
26040;SDS011;13816;53.628;9.950;2022-10-18T03:01:39;32.47;;;17.73;;
26040;SDS011;13816;53.628;9.950;2022-10-18T03:04:05;29.33;;;17.67;;
26040;SDS011;13816;53.628;9.950;2022-10-18T03:06:31;21.20;;;16.40;;
26040;SDS011;13816;53.628;9.950;2022-10-18T03:08:57;26.03;;;16.03;;
26040;SDS011;13816;53.628;9.950;2022-10-18T03:11:23;26.50;;;16.73;;
26040;SDS011;13816;53.628;9.950;2022-10-18T03:13:49;30.80;;;18.60;;
26040;SDS011;13816;53.628;9.950;2022-10-18T03:16:16;30.20;;;18.47;;
26040;SDS011;13816;53.628;9.950;2022-10-18T03:18:42;35.13;;;20.00;;
26040;SDS011;13816;53.628;9.950;2022-10-18T03:21:08;28.43;;;19.80;;
26040;SDS011;13816;53.628;9.950;2022-10-18T03:23:35;38.43;;;22.17;;
26040;SDS011;13816;53.628;9.950;2022-10-18T03:26:01;34.30;;;20.73;;
26040;SDS011;13816;53.628;9.950;2022-10-18T03:28:27;33.17;;;22.40;;
26040;SDS011;13816;53.628;9.950;2022-10-18T03:30:58;43.20;;;25.07;;
26040;SDS011;13816;53.628;9.950;2022-10-18T03:33:24;48.27;;;26.27;;
26040;SDS011;13816;53.628;9.950;2022-10-18T03:35:50;47.63;;;26.50;;
26040;SDS011;13816;53.628;9.950;2022-10-18T03:38:16;48.10;;;26.30;;
26040;SDS011;13816;53.628;9.950;2022-10-18T03:40:42;41.70;;;25.23;;
26040;SDS011;13816;53.628;9.950;2022-10-18T03:43:08;38.97;;;23.27;;
26040;SDS011;13816;53.628;9.950;2022-10-18T03:45:34;50.80;;;27.17;;
26040;SDS011;13816;53.628;9.950;2022-10-18T03:48:00;57.30;;;26.00;;
26040;SDS011;13816;53.628;9.950;2022-10-18T03:50:26;51.50;;;25.37;;
26040;SDS011;13816;53.628;9.950;2022-10-18T03:52:52;42.27;;;24.00;;
26040;SDS011;13816;53.628;9.950;2022-10-18T03:55:19;41.73;;;24.57;;
26040;SDS011;13816;53.628;9.950;2022-10-18T03:57:45;45.23;;;24.37;;
26040;SDS011;13816;53.628;9.950;2022-10-18T04:00:12;44.97;;;23.00;;
26040;SDS011;13816;53.628;9.950;2022-10-18T04:02:40;49.70;;;23.90;;
26040;SDS011;13816;53.628;9.950;2022-10-18T04:05:06;42.77;;;22.67;;
26040;SDS011;13816;53.628;9.950;2022-10-18T04:07:33;41.40;;;21.50;;
26040;SDS011;13816;53.628;9.950;2022-10-18T04:10:00;46.90;;;22.27;;
26040;SDS011;13816;53.628;9.950;2022-10-18T04:12:26;38.03;;;22.73;;
26040;SDS011;13816;53.628;9.950;2022-10-18T04:14:52;46.60;;;22.80;;
26040;SDS011;13816;53.628;9.950;2022-10-18T04:17:18;39.00;;;24.10;;
26040;SDS011;13816;53.628;9.950;2022-10-18T04:19:44;43.77;;;20.57;;
26040;SDS011;13816;53.628;9.950;2022-10-18T04:22:10;32.83;;;20.60;;
26040;SDS011;13816;53.628;9.950;2022-10-18T04:24:36;33.23;;;21.57;;
26040;SDS011;13816;53.628;9.950;2022-10-18T04:27:05;38.67;;;20.27;;
26040;SDS011;13816;53.628;9.950;2022-10-18T04:29:33;27.40;;;18.83;;
26040;SDS011;13816;53.628;9.950;2022-10-18T04:31:59;35.90;;;20.00;;
26040;SDS011;13816;53.628;9.950;2022-10-18T04:34:25;38.77;;;19.10;;
26040;SDS011;13816;53.628;9.950;2022-10-18T04:36:51;38.67;;;19.50;;
26040;SDS011;13816;53.628;9.950;2022-10-18T04:39:18;28.97;;;19.07;;
26040;SDS011;13816;53.628;9.950;2022-10-18T04:41:44;43.27;;;19.63;;
26040;SDS011;13816;53.628;9.950;2022-10-18T04:44:10;36.97;;;18.93;;
26040;SDS011;13816;53.628;9.950;2022-10-18T04:46:36;37.73;;;20.50;;
26040;SDS011;13816;53.628;9.950;2022-10-18T04:49:02;33.57;;;21.30;;
26040;SDS011;13816;53.628;9.950;2022-10-18T04:51:28;28.53;;;18.90;;
26040;SDS011;13816;53.628;9.950;2022-10-18T04:53:55;39.70;;;21.07;;
26040;SDS011;13816;53.628;9.950;2022-10-18T04:56:21;31.30;;;20.00;;
26040;SDS011;13816;53.628;9.950;2022-10-18T04:58:47;36.67;;;21.40;;
26040;SDS011;13816;53.628;9.950;2022-10-18T05:01:13;37.73;;;20.57;;
26040;SDS011;13816;53.628;9.950;2022-10-18T05:03:41;43.33;;;23.43;;
26040;SDS011;13816;53.628;9.950;2022-10-18T05:06:07;44.33;;;23.23;;
26040;SDS011;13816;53.628;9.950;2022-10-18T05:08:34;44.23;;;23.70;;
26040;SDS011;13816;53.628;9.950;2022-10-18T05:11:00;49.57;;;23.90;;
26040;SDS011;13816;53.628;9.950;2022-10-18T05:13:26;46.00;;;26.47;;
26040;SDS011;13816;53.628;9.950;2022-10-18T05:15:53;53.20;;;25.00;;
26040;SDS011;13816;53.628;9.950;2022-10-18T05:18:19;44.93;;;24.60;;
26040;SDS011;13816;53.628;9.950;2022-10-18T05:20:45;56.70;;;29.70;;
26040;SDS011;13816;53.628;9.950;2022-10-18T05:23:13;54.83;;;26.17;;
26040;SDS011;13816;53.628;9.950;2022-10-18T05:25:42;50.00;;;27.50;;
26040;SDS011;13816;53.628;9.950;2022-10-18T05:28:09;51.27;;;26.30;;
26040;SDS011;13816;53.628;9.950;2022-10-18T05:30:39;48.03;;;26.30;;
26040;SDS011;13816;53.628;9.950;2022-10-18T05:33:05;42.00;;;25.00;;
26040;SDS011;13816;53.628;9.950;2022-10-18T05:35:31;59.73;;;27.77;;
26040;SDS011;13816;53.628;9.950;2022-10-18T05:37:57;57.30;;;27.03;;
26040;SDS011;13816;53.628;9.950;2022-10-18T05:40:24;65.43;;;27.70;;
26040;SDS011;13816;53.628;9.950;2022-10-18T05:42:53;53.70;;;26.90;;
26040;SDS011;13816;53.628;9.950;2022-10-18T05:45:19;52.10;;;27.10;;
26040;SDS011;13816;53.628;9.950;2022-10-18T05:47:45;56.37;;;28.47;;
26040;SDS011;13816;53.628;9.950;2022-10-18T05:50:11;57.07;;;27.70;;
26040;SDS011;13816;53.628;9.950;2022-10-18T05:52:37;58.87;;;27.53;;
26040;SDS011;13816;53.628;9.950;2022-10-18T05:55:03;53.53;;;25.33;;
26040;SDS011;13816;53.628;9.950;2022-10-18T05:57:29;54.67;;;25.37;;
26040;SDS011;13816;53.628;9.950;2022-10-18T05:59:56;52.63;;;25.13;;
26040;SDS011;13816;53.628;9.950;2022-10-18T06:02:22;57.17;;;25.60;;
26040;SDS011;13816;53.628;9.950;2022-10-18T06:04:48;51.60;;;26.50;;
26040;SDS011;13816;53.628;9.950;2022-10-18T06:07:15;51.17;;;25.27;;
26040;SDS011;13816;53.628;9.950;2022-10-18T06:09:41;66.53;;;28.10;;
26040;SDS011;13816;53.628;9.950;2022-10-18T06:12:07;58.13;;;26.67;;
26040;SDS011;13816;53.628;9.950;2022-10-18T06:14:34;44.27;;;25.07;;
26040;SDS011;13816;53.628;9.950;2022-10-18T06:17:00;52.67;;;24.13;;
26040;SDS011;13816;53.628;9.950;2022-10-18T06:19:26;49.53;;;24.57;;
26040;SDS011;13816;53.628;9.950;2022-10-18T06:21:52;48.87;;;23.10;;
26040;SDS011;13816;53.628;9.950;2022-10-18T06:24:18;52.93;;;23.30;;
26040;SDS011;13816;53.628;9.950;2022-10-18T06:26:45;44.20;;;22.00;;
26040;SDS011;13816;53.628;9.950;2022-10-18T06:29:12;46.40;;;23.00;;
26040;SDS011;13816;53.628;9.950;2022-10-18T06:31:38;44.97;;;22.00;;
26040;SDS011;13816;53.628;9.950;2022-10-18T06:34:04;49.73;;;23.23;;
26040;SDS011;13816;53.628;9.950;2022-10-18T06:36:30;55.70;;;24.73;;
26040;SDS011;13816;53.628;9.950;2022-10-18T06:38:56;52.93;;;23.47;;
26040;SDS011;13816;53.628;9.950;2022-10-18T06:41:24;54.53;;;24.20;;
26040;SDS011;13816;53.628;9.950;2022-10-18T06:43:51;46.73;;;24.23;;
26040;SDS011;13816;53.628;9.950;2022-10-18T06:46:17;49.20;;;26.37;;
26040;SDS011;13816;53.628;9.950;2022-10-18T06:48:44;50.40;;;24.83;;
26040;SDS011;13816;53.628;9.950;2022-10-18T06:51:10;52.10;;;22.70;;
26040;SDS011;13816;53.628;9.950;2022-10-18T06:53:37;54.20;;;22.77;;
26040;SDS011;13816;53.628;9.950;2022-10-18T06:56:07;47.13;;;24.17;;
26040;SDS011;13816;53.628;9.950;2022-10-18T06:58:35;47.30;;;22.30;;
26040;SDS011;13816;53.628;9.950;2022-10-18T07:01:08;53.90;;;23.00;;
26040;SDS011;13816;53.628;9.950;2022-10-18T07:03:34;46.30;;;23.50;;
26040;SDS011;13816;53.628;9.950;2022-10-18T07:06:01;55.77;;;22.20;;
26040;SDS011;13816;53.628;9.950;2022-10-18T07:08:27;55.10;;;24.00;;
26040;SDS011;13816;53.628;9.950;2022-10-18T07:10:53;47.57;;;22.03;;
26040;SDS011;13816;53.628;9.950;2022-10-18T07:13:20;46.73;;;22.90;;
26040;SDS011;13816;53.628;9.950;2022-10-18T07:15:46;46.57;;;21.70;;
26040;SDS011;13816;53.628;9.950;2022-10-18T07:18:12;35.17;;;20.33;;
26040;SDS011;13816;53.628;9.950;2022-10-18T07:20:38;44.13;;;20.90;;
26040;SDS011;13816;53.628;9.950;2022-10-18T07:23:05;37.53;;;21.10;;
26040;SDS011;13816;53.628;9.950;2022-10-18T07:25:33;39.93;;;21.77;;
26040;SDS011;13816;53.628;9.950;2022-10-18T07:27:59;33.40;;;20.43;;
26040;SDS011;13816;53.628;9.950;2022-10-18T07:30:25;37.00;;;20.40;;
26040;SDS011;13816;53.628;9.950;2022-10-18T07:32:51;41.07;;;20.87;;
26040;SDS011;13816;53.628;9.950;2022-10-18T07:35:17;44.07;;;21.13;;
26040;SDS011;13816;53.628;9.950;2022-10-18T07:37:44;43.53;;;20.77;;
26040;SDS011;13816;53.628;9.950;2022-10-18T07:40:10;41.00;;;21.10;;
26040;SDS011;13816;53.628;9.950;2022-10-18T07:42:36;49.70;;;21.10;;
26040;SDS011;13816;53.628;9.950;2022-10-18T07:45:03;38.90;;;20.10;;
26040;SDS011;13816;53.628;9.950;2022-10-18T07:47:29;33.90;;;18.13;;
26040;SDS011;13816;53.628;9.950;2022-10-18T07:49:55;43.40;;;20.63;;
26040;SDS011;13816;53.628;9.950;2022-10-18T07:52:21;42.90;;;22.00;;
26040;SDS011;13816;53.628;9.950;2022-10-18T07:54:47;39.57;;;20.57;;
26040;SDS011;13816;53.628;9.950;2022-10-18T07:57:13;32.77;;;20.47;;
26040;SDS011;13816;53.628;9.950;2022-10-18T07:59:39;35.93;;;19.60;;
26040;SDS011;13816;53.628;9.950;2022-10-18T08:02:06;41.67;;;21.37;;
26040;SDS011;13816;53.628;9.950;2022-10-18T08:04:32;52.20;;;21.60;;
26040;SDS011;13816;53.628;9.950;2022-10-18T08:06:58;47.00;;;21.47;;
26040;SDS011;13816;53.628;9.950;2022-10-18T08:09:24;40.43;;;22.10;;
26040;SDS011;13816;53.628;9.950;2022-10-18T08:11:50;43.30;;;21.43;;
26040;SDS011;13816;53.628;9.950;2022-10-18T08:14:16;38.70;;;21.70;;
26040;SDS011;13816;53.628;9.950;2022-10-18T08:16:42;48.60;;;22.23;;
26040;SDS011;13816;53.628;9.950;2022-10-18T08:19:08;41.90;;;23.50;;
26040;SDS011;13816;53.628;9.950;2022-10-18T08:21:34;50.60;;;22.33;;
26040;SDS011;13816;53.628;9.950;2022-10-18T08:24:00;38.80;;;21.17;;
26040;SDS011;13816;53.628;9.950;2022-10-18T08:26:27;43.03;;;21.40;;
26040;SDS011;13816;53.628;9.950;2022-10-18T08:28:53;52.67;;;24.83;;
26040;SDS011;13816;53.628;9.950;2022-10-18T08:31:19;59.93;;;26.73;;
26040;SDS011;13816;53.628;9.950;2022-10-18T08:33:45;48.80;;;26.27;;
26040;SDS011;13816;53.628;9.950;2022-10-18T08:36:12;43.07;;;25.73;;
26040;SDS011;13816;53.628;9.950;2022-10-18T08:38:39;52.50;;;26.03;;
26040;SDS011;13816;53.628;9.950;2022-10-18T08:46:17;45.57;;;27.10;;
26040;SDS011;13816;53.628;9.950;2022-10-18T08:48:45;58.07;;;29.07;;
26040;SDS011;13816;53.628;9.950;2022-10-18T08:51:46;42.27;;;26.70;;
26040;SDS011;13816;53.628;9.950;2022-10-18T08:54:12;62.77;;;29.10;;
26040;SDS011;13816;53.628;9.950;2022-10-18T08:56:42;49.53;;;27.77;;
26040;SDS011;13816;53.628;9.950;2022-10-18T08:59:10;52.43;;;27.00;;
26040;SDS011;13816;53.628;9.950;2022-10-18T09:04:07;47.83;;;26.00;;
26040;SDS011;13816;53.628;9.950;2022-10-18T09:06:43;45.50;;;25.57;;
26040;SDS011;13816;53.628;9.950;2022-10-18T09:22:20;46.17;;;21.50;;
26040;SDS011;13816;53.628;9.950;2022-10-18T09:24:52;40.73;;;21.90;;
26040;SDS011;13816;53.628;9.950;2022-10-18T09:27:22;35.93;;;20.03;;
26040;SDS011;13816;53.628;9.950;2022-10-18T09:34:55;41.80;;;21.20;;
26040;SDS011;13816;53.628;9.950;2022-10-18T09:40:54;38.57;;;24.03;;
26040;SDS011;13816;53.628;9.950;2022-10-18T09:46:22;28.87;;;20.30;;
26040;SDS011;13816;53.628;9.950;2022-10-18T09:48:55;37.03;;;20.27;;
26040;SDS011;13816;53.628;9.950;2022-10-18T09:51:24;31.80;;;20.00;;
26040;SDS011;13816;53.628;9.950;2022-10-18T09:58:52;32.47;;;17.20;;
26040;SDS011;13816;53.628;9.950;2022-10-18T10:01:23;29.00;;;16.80;;
26040;SDS011;13816;53.628;9.950;2022-10-18T10:03:50;28.53;;;15.27;;
26040;SDS011;13816;53.628;9.950;2022-10-18T10:06:21;23.70;;;13.83;;
26040;SDS011;13816;53.628;9.950;2022-10-18T10:08:52;25.20;;;13.47;;
26040;SDS011;13816;53.628;9.950;2022-10-18T10:11:25;28.97;;;13.00;;
26040;SDS011;13816;53.628;9.950;2022-10-18T10:13:54;32.10;;;13.50;;
26040;SDS011;13816;53.628;9.950;2022-10-18T10:16:21;24.20;;;11.93;;
26040;SDS011;13816;53.628;9.950;2022-10-18T10:18:51;20.77;;;13.47;;
26040;SDS011;13816;53.628;9.950;2022-10-18T10:21:18;24.60;;;12.57;;
26040;SDS011;13816;53.628;9.950;2022-10-18T10:23:53;23.33;;;12.23;;
26040;SDS011;13816;53.628;9.950;2022-10-18T10:26:24;24.23;;;11.20;;
26040;SDS011;13816;53.628;9.950;2022-10-18T10:28:52;24.83;;;11.90;;
26040;SDS011;13816;53.628;9.950;2022-10-18T10:31:29;23.20;;;11.47;;
26040;SDS011;13816;53.628;9.950;2022-10-18T10:34:05;24.43;;;12.63;;
26040;SDS011;13816;53.628;9.950;2022-10-18T10:36:47;21.90;;;11.90;;
26040;SDS011;13816;53.628;9.950;2022-10-18T10:39:14;25.07;;;11.30;;
26040;SDS011;13816;53.628;9.950;2022-10-18T10:41:45;26.10;;;12.50;;
26040;SDS011;13816;53.628;9.950;2022-10-18T10:44:18;22.00;;;11.23;;
26040;SDS011;13816;53.628;9.950;2022-10-18T10:46:44;19.63;;;11.33;;
26040;SDS011;13816;53.628;9.950;2022-10-18T10:49:29;23.50;;;11.23;;
26040;SDS011;13816;53.628;9.950;2022-10-18T10:52:04;24.30;;;10.53;;
26040;SDS011;13816;53.628;9.950;2022-10-18T10:54:31;30.33;;;10.73;;
26040;SDS011;13816;53.628;9.950;2022-10-18T10:57:05;21.90;;;10.70;;
26040;SDS011;13816;53.628;9.950;2022-10-18T10:59:43;22.17;;;10.87;;
26040;SDS011;13816;53.628;9.950;2022-10-18T11:02:17;28.47;;;13.00;;
26040;SDS011;13816;53.628;9.950;2022-10-18T11:04:46;23.30;;;11.20;;
26040;SDS011;13816;53.628;9.950;2022-10-18T11:20:13;19.50;;;10.70;;
26040;SDS011;13816;53.628;9.950;2022-10-18T11:22:43;23.60;;;11.03;;
26040;SDS011;13816;53.628;9.950;2022-10-18T11:25:12;27.60;;;10.60;;
26040;SDS011;13816;53.628;9.950;2022-10-18T11:27:46;27.43;;;11.47;;
26040;SDS011;13816;53.628;9.950;2022-10-18T11:33:18;22.33;;;10.83;;
26040;SDS011;13816;53.628;9.950;2022-10-18T11:35:50;21.50;;;10.03;;
26040;SDS011;13816;53.628;9.950;2022-10-18T11:43:36;23.43;;;11.23;;
26040;SDS011;13816;53.628;9.950;2022-10-18T11:46:10;23.77;;;10.17;;
26040;SDS011;13816;53.628;9.950;2022-10-18T11:48:59;21.17;;;9.27;;
26040;SDS011;13816;53.628;9.950;2022-10-18T11:59:23;19.90;;;8.63;;
26040;SDS011;13816;53.628;9.950;2022-10-18T12:01:59;19.83;;;8.40;;
26040;SDS011;13816;53.628;9.950;2022-10-18T12:04:34;19.37;;;7.50;;
26040;SDS011;13816;53.628;9.950;2022-10-18T12:07:02;20.53;;;7.47;;
26040;SDS011;13816;53.628;9.950;2022-10-18T12:09:36;15.73;;;5.83;;
26040;SDS011;13816;53.628;9.950;2022-10-18T12:12:08;27.77;;;5.10;;
26040;SDS011;13816;53.628;9.950;2022-10-18T12:14:47;25.13;;;3.97;;
26040;SDS011;13816;53.628;9.950;2022-10-18T12:17:27;21.10;;;4.43;;
26040;SDS011;13816;53.628;9.950;2022-10-18T12:20:02;17.90;;;3.80;;
26040;SDS011;13816;53.628;9.950;2022-10-18T12:22:34;15.03;;;3.60;;
26040;SDS011;13816;53.628;9.950;2022-10-18T12:25:01;13.07;;;3.53;;
26040;SDS011;13816;53.628;9.950;2022-10-18T12:30:13;14.53;;;3.50;;
26040;SDS011;13816;53.628;9.950;2022-10-18T12:32:45;17.53;;;3.30;;
26040;SDS011;13816;53.628;9.950;2022-10-18T12:35:13;14.17;;;4.77;;
26040;SDS011;13816;53.628;9.950;2022-10-18T12:40:23;10.27;;;4.30;;
26040;SDS011;13816;53.628;9.950;2022-10-18T12:42:50;19.97;;;4.43;;
26040;SDS011;13816;53.628;9.950;2022-10-18T12:45:25;18.57;;;4.20;;
26040;SDS011;13816;53.628;9.950;2022-10-18T12:47:54;17.63;;;4.00;;
26040;SDS011;13816;53.628;9.950;2022-10-18T12:50:37;14.70;;;3.83;;
26040;SDS011;13816;53.628;9.950;2022-10-18T12:53:23;15.53;;;3.20;;
26040;SDS011;13816;53.628;9.950;2022-10-18T12:55:51;12.07;;;2.87;;
26040;SDS011;13816;53.628;9.950;2022-10-18T13:05:52;12.23;;;2.60;;
26040;SDS011;13816;53.628;9.950;2022-10-18T13:13:52;16.37;;;3.37;;
26040;SDS011;13816;53.628;9.950;2022-10-18T13:16:41;20.60;;;3.83;;
26040;SDS011;13816;53.628;9.950;2022-10-18T13:19:23;20.60;;;2.70;;
26040;SDS011;13816;53.628;9.950;2022-10-18T13:24:34;16.53;;;3.83;;
26040;SDS011;13816;53.628;9.950;2022-10-18T13:34:35;11.43;;;2.83;;
26040;SDS011;13816;53.628;9.950;2022-10-18T13:40:22;16.93;;;3.27;;
26040;SDS011;13816;53.628;9.950;2022-10-18T13:42:57;24.17;;;2.50;;
26040;SDS011;13816;53.628;9.950;2022-10-18T13:45:43;11.10;;;2.53;;
26040;SDS011;13816;53.628;9.950;2022-10-18T13:51:11;15.43;;;2.37;;
26040;SDS011;13816;53.628;9.950;2022-10-18T13:56:32;16.10;;;2.77;;
26040;SDS011;13816;53.628;9.950;2022-10-18T13:59:11;8.20;;;2.40;;
26040;SDS011;13816;53.628;9.950;2022-10-18T14:02:03;12.80;;;2.73;;
26040;SDS011;13816;53.628;9.950;2022-10-18T14:07:32;13.90;;;3.03;;
26040;SDS011;13816;53.628;9.950;2022-10-18T14:09:59;12.37;;;3.40;;
26040;SDS011;13816;53.628;9.950;2022-10-18T14:12:38;12.37;;;2.70;;
26040;SDS011;13816;53.628;9.950;2022-10-18T14:15:16;14.23;;;2.30;;
26040;SDS011;13816;53.628;9.950;2022-10-18T14:17:46;11.83;;;2.83;;
26040;SDS011;13816;53.628;9.950;2022-10-18T14:20:27;15.03;;;2.67;;
26040;SDS011;13816;53.628;9.950;2022-10-18T14:23:15;9.93;;;2.30;;
26040;SDS011;13816;53.628;9.950;2022-10-18T14:25:45;17.83;;;3.30;;
26040;SDS011;13816;53.628;9.950;2022-10-18T14:28:21;14.80;;;3.00;;
26040;SDS011;13816;53.628;9.950;2022-10-18T14:30:58;17.97;;;2.80;;
26040;SDS011;13816;53.628;9.950;2022-10-18T14:36:12;19.97;;;3.07;;
26040;SDS011;13816;53.628;9.950;2022-10-18T14:41:38;12.43;;;2.78;;
26040;SDS011;13816;53.628;9.950;2022-10-18T14:50:15;17.97;;;2.90;;
26040;SDS011;13816;53.628;9.950;2022-10-18T14:52:49;10.80;;;2.57;;
26040;SDS011;13816;53.628;9.950;2022-10-18T14:56:09;20.43;;;2.77;;
26040;SDS011;13816;53.628;9.950;2022-10-18T15:02:51;13.83;;;3.57;;
26040;SDS011;13816;53.628;9.950;2022-10-18T15:05:25;18.60;;;3.20;;
26040;SDS011;13816;53.628;9.950;2022-10-18T15:08:15;13.03;;;1.90;;
26040;SDS011;13816;53.628;9.950;2022-10-18T15:10:44;12.37;;;3.03;;
26040;SDS011;13816;53.628;9.950;2022-10-18T15:13:23;19.87;;;2.77;;
26040;SDS011;13816;53.628;9.950;2022-10-18T15:15:50;8.80;;;2.50;;
26040;SDS011;13816;53.628;9.950;2022-10-18T15:18:21;16.73;;;3.00;;
26040;SDS011;13816;53.628;9.950;2022-10-18T15:24:16;11.83;;;2.37;;
26040;SDS011;13816;53.628;9.950;2022-10-18T15:30:06;12.40;;;2.67;;
26040;SDS011;13816;53.628;9.950;2022-10-18T15:35:40;13.00;;;3.07;;
26040;SDS011;13816;53.628;9.950;2022-10-18T15:38:28;14.23;;;2.97;;
26040;SDS011;13816;53.628;9.950;2022-10-18T15:46:47;13.53;;;3.30;;
26040;SDS011;13816;53.628;9.950;2022-10-18T16:01:04;9.23;;;2.60;;
26040;SDS011;13816;53.628;9.950;2022-10-18T16:03:47;13.20;;;2.67;;
26040;SDS011;13816;53.628;9.950;2022-10-18T16:07:08;10.40;;;2.73;;
26040;SDS011;13816;53.628;9.950;2022-10-18T16:13:03;8.73;;;2.00;;
26040;SDS011;13816;53.628;9.950;2022-10-18T16:15:29;12.00;;;3.00;;
26040;SDS011;13816;53.628;9.950;2022-10-18T16:18:02;13.17;;;2.87;;
26040;SDS011;13816;53.628;9.950;2022-10-18T16:24:05;8.37;;;2.30;;
26040;SDS011;13816;53.628;9.950;2022-10-18T16:33:15;15.43;;;3.63;;
26040;SDS011;13816;53.628;9.950;2022-10-18T16:35:47;13.60;;;2.57;;
26040;SDS011;13816;53.628;9.950;2022-10-18T16:38:38;9.90;;;3.00;;
26040;SDS011;13816;53.628;9.950;2022-10-18T16:42:22;8.60;;;2.60;;
26040;SDS011;13816;53.628;9.950;2022-10-18T16:44:23;15.13;;;3.17;;
26040;SDS011;13816;53.628;9.950;2022-10-18T16:47:17;16.07;;;2.87;;
26040;SDS011;13816;53.628;9.950;2022-10-18T16:49:43;16.63;;;3.63;;
26040;SDS011;13816;53.628;9.950;2022-10-18T16:52:10;13.00;;;3.43;;
26040;SDS011;13816;53.628;9.950;2022-10-18T16:54:37;17.40;;;3.57;;
26040;SDS011;13816;53.628;9.950;2022-10-18T16:57:03;15.03;;;3.13;;
26040;SDS011;13816;53.628;9.950;2022-10-18T16:59:32;8.90;;;2.67;;
26040;SDS011;13816;53.628;9.950;2022-10-18T17:01:58;12.43;;;2.57;;
26040;SDS011;13816;53.628;9.950;2022-10-18T17:04:32;19.80;;;3.40;;
26040;SDS011;13816;53.628;9.950;2022-10-18T17:06:58;19.57;;;3.47;;
26040;SDS011;13816;53.628;9.950;2022-10-18T17:09:25;13.53;;;2.50;;
26040;SDS011;13816;53.628;9.950;2022-10-18T17:11:51;16.00;;;2.70;;
26040;SDS011;13816;53.628;9.950;2022-10-18T17:14:17;12.77;;;2.90;;
26040;SDS011;13816;53.628;9.950;2022-10-18T17:16:44;15.20;;;2.90;;
26040;SDS011;13816;53.628;9.950;2022-10-18T17:19:10;22.50;;;4.30;;
26040;SDS011;13816;53.628;9.950;2022-10-18T17:21:36;15.10;;;2.50;;
26040;SDS011;13816;53.628;9.950;2022-10-18T17:24:03;14.10;;;3.10;;
26040;SDS011;13816;53.628;9.950;2022-10-18T17:26:30;13.60;;;2.90;;
26040;SDS011;13816;53.628;9.950;2022-10-18T17:28:58;14.17;;;3.07;;
26040;SDS011;13816;53.628;9.950;2022-10-18T17:31:25;14.63;;;2.27;;
26040;SDS011;13816;53.628;9.950;2022-10-18T17:33:51;14.40;;;2.80;;
26040;SDS011;13816;53.628;9.950;2022-10-18T17:36:19;19.40;;;2.47;;
26040;SDS011;13816;53.628;9.950;2022-10-18T17:38:48;13.50;;;2.77;;
26040;SDS011;13816;53.628;9.950;2022-10-18T17:41:14;12.07;;;3.13;;
26040;SDS011;13816;53.628;9.950;2022-10-18T17:43:40;16.47;;;3.70;;